Time;durP1;ratioP1;P1;durP2;ratioP2;P2;SDS_P1;SDS_P2;PMS_P1;PMS_P2;Temp;Humidity;BMP_temperature;BMP_pressure;BME280_temperature;BME280_humidity;BME280_pressure;Samples;Min_cycle;Max_cycle;Signal;HPM_P1;HPM_P2
2022/06/30 00:01:00;;;;;;;14.13;11.90;;;;;;;18.59;84.70;100959.81;4919308;29;21403;-79
2022/06/30 00:03:25;;;;;;;15.47;12.40;;;;;;;18.59;83.08;100950.72;4932551;29;20059;-79
2022/06/30 00:05:50;;;;;;;16.33;11.80;;;;;;;18.56;81.85;100952.94;4919951;29;20094;-79
2022/06/30 00:08:16;;;;;;;16.10;11.70;;;;;;;18.56;81.79;100943.84;4932640;29;20545;-79
2022/06/30 00:10:41;;;;;;;13.93;11.37;;;;;;;18.62;80.90;100948.31;4919866;29;20139;-79
2022/06/30 00:13:07;;;;;;;17.57;12.10;;;;;;;18.65;78.89;100942.28;4932600;29;20047;-79
2022/06/30 00:15:35;;;;;;;15.47;11.10;;;;;;;18.68;77.92;100940.94;4932887;29;20047;-80
2022/06/30 00:18:01;;;;;;;14.20;11.57;;;;;;;18.69;77.75;100948.88;4932271;29;20031;-81
2022/06/30 00:20:26;;;;;;;15.23;12.03;;;;;;;18.61;78.57;100929.34;4933095;29;20047;-80
2022/06/30 00:22:51;;;;;;;14.63;11.50;;;;;;;18.72;77.62;100934.63;4932780;29;20023;-79
2022/06/30 00:25:17;;;;;;;13.90;11.43;;;;;;;18.62;79.71;100936.47;4933035;29;20047;-80
2022/06/30 00:27:43;;;;;;;14.70;11.40;;;;;;;18.70;77.45;100939.56;4932369;29;20255;-79
2022/06/30 00:30:09;;;;;;;13.07;11.50;;;;;;;18.66;79.70;100924.72;4932637;29;20126;-79
2022/06/30 00:32:34;;;;;;;15.13;11.83;;;;;;;18.72;77.44;100933.81;4931822;28;20047;-79
2022/06/30 00:35:01;;;;;;;14.10;11.37;;;;;;;18.62;77.79;100918.13;4932277;29;20043;-79
2022/06/30 00:37:26;;;;;;;14.63;11.63;;;;;;;18.65;77.76;100916.75;4932398;29;20376;-80
2022/06/30 00:39:52;;;;;;;14.87;11.33;;;;;;;18.66;77.28;100930.22;4932354;29;20039;-80
2022/06/30 00:42:17;;;;;;;16.07;12.23;;;;;;;18.62;77.81;100918.13;4916991;29;20035;-80
2022/06/30 00:44:42;;;;;;;14.37;11.57;;;;;;;18.66;76.92;100921.97;4931706;29;20043;-81
2022/06/30 00:47:08;;;;;;;14.90;11.80;;;;;;;18.67;76.76;100918.16;4931868;29;20077;-79
2022/06/30 00:49:34;;;;;;;14.93;11.57;;;;;;;18.69;76.90;100931.59;4932248;29;20097;-80
2022/06/30 00:52:01;;;;;;;17.47;11.83;;;;;;;18.75;76.17;100927.78;4932423;29;20040;-80
2022/06/30 00:54:28;;;;;;;17.27;12.37;;;;;;;18.72;76.70;100920.09;4931946;29;20519;-79
2022/06/30 00:56:55;;;;;;;16.17;12.27;;;;;;;18.71;76.57;100919.28;4932174;29;20392;-79
2022/06/30 00:59:21;;;;;;;16.80;12.47;;;;;;;18.71;76.46;100912.94;4931980;29;20046;-80
2022/06/30 01:01:48;;;;;;;15.47;12.17;;;;;;;18.70;76.50;100920.38;4916830;29;20653;-80
2022/06/30 01:04:14;;;;;;;16.97;13.20;;;;;;;18.69;76.89;100913.22;4931816;29;20114;-78
2022/06/30 01:06:43;;;;;;;16.17;12.27;;;;;;;18.67;76.86;100915.41;4933401;29;20819;-79
2022/06/30 01:09:08;;;;;;;18.40;12.47;;;;;;;18.72;76.21;100928.31;4918954;29;20148;-80
2022/06/30 01:14:18;;;;;;;14.60;12.68;;;;;;;18.61;78.30;100921.94;4932389;29;20061;-81
2022/06/30 01:16:44;;;;;;;17.13;12.23;;;;;;;18.65;76.35;100919.50;4932707;29;20059;-80
2022/06/30 01:19:09;;;;;;;18.27;13.27;;;;;;;18.71;76.09;100924.75;4918283;29;20081;-79
2022/06/30 01:21:34;;;;;;;18.73;13.00;;;;;;;18.72;76.21;100926.41;4932964;29;20465;-80
2022/06/30 01:24:00;;;;;;;18.73;12.73;;;;;;;18.73;76.57;100928.06;4931474;29;20084;-80
2022/06/30 01:26:27;;;;;;;16.70;12.97;;;;;;;18.71;76.19;100927.50;4932555;29;20254;-79
2022/06/30 01:28:52;;;;;;;18.43;13.03;;;;;;;18.71;76.07;100929.41;4932004;29;20039;-79
2022/06/30 01:31:18;;;;;;;18.47;13.33;;;;;;;18.68;76.87;100922.53;4932041;29;20043;-79
2022/06/30 01:33:44;;;;;;;16.43;13.10;;;;;;;18.69;76.44;100928.88;4932334;29;20043;-79
2022/06/30 01:36:09;;;;;;;17.52;12.75;;;;;;;18.70;77.40;100934.09;4932638;29;20058;-80
2022/06/30 01:38:34;;;;;;;16.30;12.97;;;;;;;18.64;77.32;100937.06;4931291;29;20641;-79
2022/06/30 01:41:00;;;;;;;16.73;13.60;;;;;;;18.54;78.41;100940.56;4931353;29;20757;-80
2022/06/30 01:43:25;;;;;;;17.53;13.50;;;;;;;18.49;79.13;100941.31;4933457;28;20050;-79
2022/06/30 01:45:51;;;;;;;16.10;13.60;;;;;;;18.36;80.12;100939.88;4935369;29;20755;-79
2022/06/30 01:48:16;;;;;;;16.37;13.23;;;;;;;18.28;80.59;100951.31;4934908;29;21467;-79
2022/06/30 01:50:42;;;;;;;16.90;14.30;;;;;;;18.33;78.43;100945.88;4936121;29;20120;-80
2022/06/30 01:53:07;;;;;;;18.73;13.87;;;;;;;18.32;78.60;100941.47;4935619;29;20042;-78
2022/06/30 01:55:32;;;;;;;17.33;14.03;;;;;;;18.18;81.71;100943.84;4935768;29;20043;-78
2022/06/30 01:57:58;;;;;;;16.60;14.50;;;;;;;18.06;82.13;100940.44;4921360;29;20407;-78
2022/06/30 02:00:26;;;;;;;17.70;14.60;;;;;;;18.00;82.22;100941.47;4935050;29;21444;-79
2022/06/30 02:02:53;;;;;;;18.30;14.53;;;;;;;17.98;81.10;100927.19;4921599;29;20106;-79
2022/06/30 02:05:19;;;;;;;19.17;14.40;;;;;;;18.01;80.45;100943.13;4934679;29;20063;-80
2022/06/30 02:07:45;;;;;;;17.70;14.77;;;;;;;18.03;79.70;100940.94;4935237;29;20048;-79
2022/06/30 02:10:14;;;;;;;18.67;14.47;;;;;;;18.02;79.87;100944.78;4934129;29;20054;-79
2022/06/30 02:12:46;;;;;;;17.43;14.57;;;;;;;17.97;81.23;100947.47;4935285;29;20416;-79
2022/06/30 02:15:13;;;;;;;19.13;14.37;;;;;;;17.95;80.46;100955.09;4936940;29;20039;-79
2022/06/30 02:17:40;;;;;;;20.47;15.50;;;;;;;17.92;80.15;100953.72;4919782;29;20031;-80
2022/06/30 02:20:07;;;;;;;20.63;15.33;;;;;;;17.94;79.87;100948.81;4934467;29;20035;-79
2022/06/30 02:22:33;;;;;;;18.27;15.00;;;;;;;17.80;81.98;100940.16;4919263;29;20702;-79
2022/06/30 02:24:58;;;;;;;18.23;15.33;;;;;;;17.78;82.03;100949.72;4937605;29;20455;-78
2022/06/30 02:27:24;;;;;;;26.73;16.17;;;;;;;17.84;81.41;100955.00;4934952;29;20031;-78
2022/06/30 02:29:53;;;;;;;19.10;15.83;;;;;;;17.76;81.48;100944.50;4934103;29;20187;-79
2022/06/30 02:32:20;;;;;;;21.63;16.90;;;;;;;17.83;81.10;100955.25;4934591;29;20054;-79
2022/06/30 02:34:46;;;;;;;20.53;16.57;;;;;;;17.69;81.07;100933.72;4934609;29;20036;-79
2022/06/30 02:37:12;;;;;;;19.60;16.23;;;;;;;17.80;80.99;100947.53;4934127;29;20435;-79
2022/06/30 02:39:37;;;;;;;20.70;17.13;;;;;;;17.78;80.91;100946.97;4934002;29;20122;-79
2022/06/30 02:42:03;;;;;;;20.23;17.20;;;;;;;17.79;80.99;100940.38;4934800;29;20086;-79
2022/06/30 02:44:29;;;;;;;20.20;16.97;;;;;;;17.76;81.09;100946.38;4934293;29;20042;-79
2022/06/30 02:46:54;;;;;;;21.43;18.17;;;;;;;17.74;81.36;100954.88;4937476;29;20039;-79
2022/06/30 02:49:21;;;;;;;21.60;17.13;;;;;;;17.60;82.85;100932.53;4934296;29;20035;-79
2022/06/30 02:51:46;;;;;;;21.57;17.53;;;;;;;17.65;81.81;100940.81;4935043;29;20070;-80
2022/06/30 02:54:12;;;;;;;20.90;17.57;;;;;;;17.67;81.71;100935.88;4932905;29;20031;-79
2022/06/30 02:56:37;;;;;;;20.67;18.03;;;;;;;17.67;81.81;100941.38;4935140;29;20031;-79
2022/06/30 02:59:03;;;;;;;21.67;17.53;;;;;;;17.38;83.35;100947.06;4933627;29;20035;-80
2022/06/30 03:01:28;;;;;;;21.63;19.00;;;;;;;17.56;82.99;100950.56;4934999;29;20099;-79
2022/06/30 03:03:53;;;;;;;21.63;18.20;;;;;;;17.57;82.94;100937.69;4934283;29;20087;-79
2022/06/30 03:06:19;;;;;;;22.40;17.73;;;;;;;17.44;84.00;100949.88;4920933;29;20070;-79
2022/06/30 03:08:44;;;;;;;21.20;18.50;;;;;;;17.37;83.85;100947.31;4934037;29;20070;-79
2022/06/30 03:11:16;;;;;;;23.33;18.83;;;;;;;17.48;83.42;100945.53;4934511;29;20122;-79
2022/06/30 03:13:43;;;;;;;22.03;19.73;;;;;;;17.50;83.55;100946.09;4935069;29;20047;-80
2022/06/30 03:16:08;;;;;;;22.60;19.20;;;;;;;17.50;83.46;100946.94;4916423;29;20042;-80
2022/06/30 03:18:33;;;;;;;22.17;19.07;;;;;;;17.47;83.45;100941.13;4915799;29;20540;-79
2022/06/30 03:20:59;;;;;;;23.27;19.97;;;;;;;17.53;83.40;100940.94;4933998;29;20073;-79
2022/06/30 03:23:26;;;;;;;22.47;20.07;;;;;;;17.51;83.59;100942.28;4934080;29;20121;-80
2022/06/30 03:25:52;;;;;;;23.50;20.00;;;;;;;17.55;83.59;100940.69;4934073;29;20046;-80
2022/06/30 03:28:17;;;;;;;22.50;19.47;;;;;;;17.51;83.45;100934.06;4933385;29;20379;-80
2022/06/30 03:30:45;;;;;;;21.53;18.97;;;;;;;17.48;83.69;100934.59;4933011;29;20078;-79
2022/06/30 03:33:10;;;;;;;23.47;19.80;;;;;;;17.46;83.52;100931.25;4932900;29;20078;-79
2022/06/30 03:35:35;;;;;;;23.37;20.87;;;;;;;17.48;83.33;100929.91;4933233;29;20061;-81
2022/06/30 03:38:03;;;;;;;21.47;19.03;;;;;;;17.44;83.53;100927.97;4934077;29;20071;-80
2022/06/30 03:40:29;;;;;;;23.23;19.53;;;;;;;17.41;83.83;100929.28;4932587;29;20042;-79
2022/06/30 03:42:54;;;;;;;22.77;19.93;;;;;;;17.28;84.00;100913.25;4920170;29;20051;-79
2022/06/30 03:45:19;;;;;;;23.73;20.23;;;;;;;17.34;84.19;100926.75;4933149;29;20083;-79
2022/06/30 03:47:45;;;;;;;23.67;19.70;;;;;;;17.35;84.22;100924.84;4932843;29;20098;-79
2022/06/30 03:50:10;;;;;;;24.10;20.80;;;;;;;17.30;84.38;100925.59;4932529;29;20121;-80
2022/06/30 03:52:35;;;;;;;21.97;19.57;;;;;;;17.19;84.85;100930.13;4933353;29;20428;-79
2022/06/30 03:55:01;;;;;;;24.27;21.10;;;;;;;17.27;85.34;100928.00;4919535;29;20047;-81
2022/06/30 03:57:26;;;;;;;24.83;21.43;;;;;;;17.27;85.05;100917.06;4933725;29;20045;-79
2022/06/30 03:59:51;;;;;;;23.37;20.50;;;;;;;17.30;84.83;100917.38;4932594;29;20031;-79
2022/06/30 04:02:17;;;;;;;26.10;21.27;;;;;;;17.31;84.87;100912.72;4933075;29;20366;-80
2022/06/30 04:04:42;;;;;;;23.70;20.57;;;;;;;17.31;84.73;100915.47;4932263;29;20066;-80
2022/06/30 04:07:07;;;;;;;23.50;21.03;;;;;;;17.34;84.88;100918.53;4933088;28;20789;-80
2022/06/30 04:09:33;;;;;;;24.00;21.40;;;;;;;17.36;84.78;100915.53;4929115;29;20067;-79
2022/06/30 04:11:58;;;;;;;26.13;22.03;;;;;;;17.33;84.60;100907.84;4933404;29;20462;-80
2022/06/30 04:14:24;;;;;;;23.97;20.77;;;;;;;17.32;84.54;100895.22;4932391;29;20051;-79
2022/06/30 04:16:49;;;;;;;24.37;21.57;;;;;;;17.33;84.81;100900.44;4933272;29;20035;-79
2022/06/30 04:19:14;;;;;;;24.90;22.20;;;;;;;17.30;85.08;100900.13;4932166;29;20146;-82
2022/06/30 04:21:40;;;;;;;24.57;21.53;;;;;;;17.35;85.20;100914.72;4932998;29;20572;-80
2022/06/30 04:24:05;;;;;;;25.07;22.30;;;;;;;17.38;85.02;100916.94;4930332;28;20047;-80
2022/06/30 04:26:31;;;;;;;24.73;22.13;;;;;;;17.42;84.95;100916.41;4932383;29;20090;-80
2022/06/30 04:28:56;;;;;;;26.03;22.13;;;;;;;17.47;84.90;100924.72;4932700;29;20051;-80
2022/06/30 04:34:05;;;;;;;23.92;20.98;;;;;;;17.54;84.46;100911.63;4932676;29;20063;-80
2022/06/30 04:36:31;;;;;;;24.27;21.53;;;;;;;17.55;84.41;100910.56;4917298;29;20385;-82
2022/06/30 04:38:56;;;;;;;25.87;23.00;;;;;;;17.59;84.85;100922.66;4932390;29;20033;-79
2022/06/30 04:41:24;;;;;;;25.47;22.10;;;;;;;17.64;84.37;100925.44;4932222;29;20465;-80
2022/06/30 04:43:58;;;;;;;24.67;21.87;;;;;;;17.69;84.32;100925.50;4897534;29;20619;-81
2022/06/30 04:46:24;;;;;;;27.05;21.45;;;;;;;17.74;84.18;100926.66;4932332;29;20419;-78
2022/06/30 04:48:50;;;;;;;26.00;21.87;;;;;;;17.77;83.89;100932.41;4932505;29;21410;-80
2022/06/30 04:51:15;;;;;;;24.10;20.97;;;;;;;17.83;83.44;100936.88;4932319;29;20466;-81
2022/06/30 04:53:41;;;;;;;23.23;20.73;;;;;;;17.87;82.98;100937.22;4932211;29;20635;-80
2022/06/30 04:56:08;;;;;;;25.37;20.97;;;;;;;17.89;82.87;100945.97;4932503;29;20423;-80
2022/06/30 04:58:33;;;;;;;24.80;21.27;;;;;;;17.93;83.78;100984.72;4913429;29;20654;-82
2022/06/30 05:00:59;;;;;;;25.30;21.63;;;;;;;17.89;83.13;100938.56;4931580;29;20147;-80
2022/06/30 05:03:24;;;;;;;25.30;19.80;;;;;;;17.92;83.25;100937.25;4932035;29;20042;-79
2022/06/30 05:05:49;;;;;;;22.80;20.40;;;;;;;17.95;82.85;100966.91;4931903;29;20039;-82
2022/06/30 05:08:15;;;;;;;22.60;20.20;;;;;;;17.91;83.83;100954.78;4931805;29;20936;-78
2022/06/30 05:10:40;;;;;;;26.70;20.53;;;;;;;17.81;83.65;100925.34;4934156;29;20074;-79
2022/06/30 05:13:07;;;;;;;24.20;21.70;;;;;;;17.90;84.85;100975.06;4931937;29;20036;-81
2022/06/30 05:15:33;;;;;;;24.30;21.70;;;;;;;17.84;84.72;100959.63;4932802;29;20047;-80
2022/06/30 05:17:59;;;;;;;25.10;22.20;;;;;;;17.80;84.93;100958.50;4933342;28;20105;-80
2022/06/30 05:20:25;;;;;;;24.70;22.07;;;;;;;17.83;86.04;100975.25;4935604;29;20047;-80
2022/06/30 05:22:51;;;;;;;26.10;23.40;;;;;;;17.79;86.73;100952.19;4935777;29;20563;-80
2022/06/30 05:28:01;;;;;;;27.90;24.90;;;;;;;17.83;87.15;100968.97;4935373;29;20125;-80
2022/06/30 05:30:26;;;;;;;27.27;24.40;;;;;;;17.82;87.53;100965.38;4935700;29;20039;-80
2022/06/30 05:32:52;;;;;;;27.73;24.97;;;;;;;17.77;87.37;100939.81;4938503;29;20125;-82
2022/06/30 05:35:17;;;;;;;29.57;26.47;;;;;;;17.83;88.06;100963.47;4936154;29;20044;-80
2022/06/30 05:37:42;;;;;;;27.50;24.63;;;;;;;17.88;88.00;100967.09;4919998;29;20055;-80
2022/06/30 05:40:08;;;;;;;27.97;24.97;;;;;;;17.83;87.32;100963.47;4936031;29;20043;-80
2022/06/30 05:42:34;;;;;;;27.97;25.13;;;;;;;17.80;87.68;100961.22;4935335;29;20047;-81
2022/06/30 05:44:59;;;;;;;30.50;27.37;;;;;;;17.85;88.46;100953.06;4935457;29;20051;-81
2022/06/30 05:47:25;;;;;;;29.63;26.53;;;;;;;17.83;88.75;100949.78;4935780;29;20047;-81
2022/06/30 05:49:50;;;;;;;30.30;27.10;;;;;;;17.94;89.00;100954.28;4934968;29;20042;-79
2022/06/30 05:52:15;;;;;;;31.27;28.17;;;;;;;17.98;88.35;100958.19;4936056;29;20574;-79
2022/06/30 05:54:41;;;;;;;29.17;26.27;;;;;;;18.08;88.46;100953.88;4935239;29;20098;-79
2022/06/30 05:57:06;;;;;;;29.33;26.27;;;;;;;18.09;88.28;100955.50;4935561;29;20105;-80
2022/06/30 05:59:32;;;;;;;30.00;27.00;;;;;;;18.12;88.09;100952.28;4934906;29;20054;-81
2022/06/30 06:01:59;;;;;;;29.80;26.90;;;;;;;18.17;88.01;100963.31;4921490;29;20040;-81
2022/06/30 06:04:24;;;;;;;30.57;27.47;;;;;;;18.17;88.29;100955.88;4933877;29;20122;-81
2022/06/30 06:06:50;;;;;;;31.17;27.87;;;;;;;18.29;88.15;100966.69;4935387;29;20507;-80
2022/06/30 06:09:15;;;;;;;31.37;28.10;;;;;;;18.28;88.10;100964.19;4935288;29;20039;-80
2022/06/30 06:11:42;;;;;;;30.80;27.70;;;;;;;18.37;87.42;100971.69;4934879;29;20499;-80
2022/06/30 06:14:07;;;;;;;31.93;28.77;;;;;;;18.37;87.46;100974.44;4935067;29;21356;-80
2022/06/30 06:16:33;;;;;;;30.63;27.33;;;;;;;18.33;86.57;100973.31;4921826;29;20711;-81
2022/06/30 06:18:58;;;;;;;31.47;28.07;;;;;;;18.40;87.35;100962.13;4921881;29;20039;-81
2022/06/30 06:21:24;;;;;;;30.67;27.57;;;;;;;18.45;86.65;100972.31;4935221;29;20043;-80
2022/06/30 06:23:49;;;;;;;30.53;27.23;;;;;;;18.56;86.53;100974.03;4921933;29;20492;-83
2022/06/30 06:26:15;;;;;;;30.90;27.60;;;;;;;18.64;85.89;100973.53;4934646;29;20050;-82
2022/06/30 06:31:25;;;;;;;29.08;26.10;;;;;;;18.74;85.31;100978.31;4933772;29;20062;-82
2022/06/30 06:33:50;;;;;;;28.73;25.73;;;;;;;18.75;85.30;100976.38;4935187;29;20372;-83
2022/06/30 06:36:16;;;;;;;31.10;26.13;;;;;;;18.83;85.21;100982.19;4933043;29;20380;-80
2022/06/30 06:38:41;;;;;;;27.37;24.47;;;;;;;18.91;84.94;100980.09;4934804;29;20098;-81
2022/06/30 06:41:08;;;;;;;26.58;22.98;;;;;;;18.94;84.26;100979.56;4933525;29;20114;-81
2022/06/30 06:43:34;;;;;;;26.80;22.33;;;;;;;19.01;83.35;100975.50;4934689;29;20187;-80
2022/06/30 06:45:59;;;;;;;27.23;22.53;;;;;;;19.09;83.51;100981.56;4918935;29;20043;-81
2022/06/30 06:48:25;;;;;;;24.57;21.33;;;;;;;19.12;82.31;100984.63;4914729;29;20047;-81
2022/06/30 06:50:50;;;;;;;24.85;20.63;;;;;;;19.13;82.42;100982.69;4933828;29;20134;-81
2022/06/30 06:53:16;;;;;;;24.40;20.80;;;;;;;19.23;81.52;100996.50;4934478;29;20118;-80
2022/06/30 06:55:41;;;;;;;23.50;18.90;;;;;;;19.31;80.84;100993.25;4934942;29;20047;-80
2022/06/30 06:58:08;;;;;;;22.30;17.17;;;;;;;19.40;81.17;100988.84;4934545;29;20047;-80
2022/06/30 07:00:33;;;;;;;22.90;17.15;;;;;;;19.42;80.25;100998.75;4936353;29;20384;-81
2022/06/30 07:02:59;;;;;;;21.55;16.75;;;;;;;19.44;79.99;101002.09;4934246;29;20290;-80
2022/06/30 07:05:24;;;;;;;22.63;16.60;;;;;;;19.48;81.02;100998.53;4934411;29;20558;-81
2022/06/30 07:08:00;;;;;;;21.83;16.27;;;;;;;19.66;80.96;101005.47;4934167;29;20043;-81
2022/06/30 07:10:27;;;;;;;20.63;15.68;;;;;;;19.65;79.31;101008.47;4933349;29;20613;-80
2022/06/30 07:12:52;;;;;;;22.27;15.95;;;;;;;19.60;79.05;101009.28;4933487;29;20036;-81
2022/06/30 07:15:19;;;;;;;18.98;14.88;;;;;;;19.69;79.81;101024.19;4921103;29;20078;-80
2022/06/30 07:17:44;;;;;;;18.38;15.07;;;;;;;19.70;79.58;101025.81;4933618;29;20480;-80
2022/06/30 07:20:10;;;;;;;19.45;14.48;;;;;;;19.84;78.95;101028.09;4933886;29;20058;-80
2022/06/30 07:22:35;;;;;;;22.83;15.00;;;;;;;19.93;79.63;101034.72;4933685;29;20046;-80
2022/06/30 07:25:03;;;;;;;23.10;14.40;;;;;;;20.01;79.29;101025.94;4933633;29;20488;-80
2022/06/30 07:27:29;;;;;;;20.35;12.73;;;;;;;20.26;79.10;101045.53;4933063;29;20039;-81
2022/06/30 07:29:55;;;;;;;19.88;13.10;;;;;;;20.32;79.44;101036.22;4933336;29;20035;-80
2022/06/30 07:32:21;;;;;;;17.95;12.98;;;;;;;20.29;78.68;101039.50;4932890;29;20680;-81
2022/06/30 07:34:46;;;;;;;21.60;12.77;;;;;;;20.33;77.16;101035.94;4936384;29;20036;-82
2022/06/30 07:37:11;;;;;;;15.57;10.82;;;;;;;20.48;76.10;101050.81;4932658;29;20428;-81
2022/06/30 07:39:37;;;;;;;17.20;10.25;;;;;;;20.45;76.42;101057.66;4936572;29;20174;-81
2022/06/30 07:42:03;;;;;;;15.95;9.80;;;;;;;20.44;75.36;101067.06;4933002;28;20146;-81
2022/06/30 07:44:28;;;;;;;17.50;10.13;;;;;;;20.42;75.33;101063.72;4933646;29;21800;-80
2022/06/30 07:46:53;;;;;;;13.68;8.88;;;;;;;20.37;75.46;101058.22;4933190;29;20134;-81
2022/06/30 07:49:19;;;;;;;17.42;9.90;;;;;;;20.35;75.15;101060.44;4936454;29;20072;-80
2022/06/30 07:51:44;;;;;;;18.77;11.02;;;;;;;20.31;74.77;101062.88;4933170;29;20131;-81
2022/06/30 07:54:10;;;;;;;15.75;9.40;;;;;;;20.35;75.68;101057.69;4936519;29;20133;-80
2022/06/30 07:56:35;;;;;;;17.17;10.40;;;;;;;20.35;75.42;101065.94;4932679;29;20492;-80
2022/06/30 07:59:00;;;;;;;17.42;9.73;;;;;;;20.44;74.03;101066.22;4931973;28;20046;-80
2022/06/30 08:01:26;;;;;;;15.57;9.43;;;;;;;20.49;73.21;101078.03;4932887;29;20123;-82
2022/06/30 08:03:51;;;;;;;15.77;9.05;;;;;;;20.49;73.38;101066.22;4932922;29;20722;-82
2022/06/30 08:06:17;;;;;;;17.00;9.02;;;;;;;20.55;73.44;101071.47;4932394;29;20074;-82
2022/06/30 08:08:42;;;;;;;17.73;9.38;;;;;;;20.69;74.18;101060.75;4933260;29;20419;-81
2022/06/30 08:11:09;;;;;;;14.75;8.50;;;;;;;20.89;72.82;101072.91;4932439;29;20456;-82
2022/06/30 08:13:35;;;;;;;13.07;7.97;;;;;;;20.89;72.33;101054.44;4932108;29;20353;-82
2022/06/30 08:16:00;;;;;;;14.27;7.60;;;;;;;21.14;73.11;101065.72;4932475;29;20034;-80
2022/06/30 08:18:26;;;;;;;13.80;6.63;;;;;;;21.23;70.01;101056.59;4933032;29;20208;-81
2022/06/30 08:20:51;;;;;;;11.45;6.65;;;;;;;21.51;68.48;101059.81;4932613;29;20106;-82
2022/06/30 08:23:17;;;;;;;12.88;6.55;;;;;;;21.61;67.87;101063.69;4932805;29;20031;-82
2022/06/30 08:25:42;;;;;;;13.75;6.35;;;;;;;21.71;66.25;101053.44;4933810;29;20039;-81
2022/06/30 08:28:08;;;;;;;11.60;6.30;;;;;;;22.00;66.30;101058.25;4935771;29;20050;-82
2022/06/30 08:30:34;;;;;;;9.43;5.32;;;;;;;22.18;64.58;101061.50;4939717;29;20042;-81
2022/06/30 08:33:00;;;;;;;10.82;5.43;;;;;;;22.29;64.34;101056.72;4919496;29;20024;-82
2022/06/30 08:35:25;;;;;;;8.45;5.10;;;;;;;22.60;63.83;101057.38;4923468;29;20255;-82
2022/06/30 08:37:51;;;;;;;10.77;5.00;;;;;;;22.74;62.19;101058.38;4931553;29;20048;-80
2022/06/30 08:43:00;;;;;;;12.27;4.93;;;;;;;22.80;61.62;101052.81;4933081;29;20054;-81
2022/06/30 08:45:28;;;;;;;9.68;5.18;;;;;;;22.93;61.98;101055.72;4909267;29;20464;-81
2022/06/30 08:48:12;;;;;;;9.75;4.53;;;;;;;23.42;63.00;101056.63;4924300;29;20046;-80
2022/06/30 08:50:42;;;;;;;12.27;4.63;;;;;;;23.27;62.30;101059.56;4923094;29;20054;-81
2022/06/30 08:53:09;;;;;;;8.75;4.70;;;;;;;23.44;63.59;101059.09;4939483;29;20082;-83
2022/06/30 08:55:36;;;;;;;8.57;4.07;;;;;;;23.75;58.90;101059.56;4940859;29;20043;-81
2022/06/30 08:58:04;;;;;;;9.05;4.00;;;;;;;23.80;57.76;101052.31;4942285;29;20455;-80
2022/06/30 09:00:30;;;;;;;9.05;4.05;;;;;;;24.00;58.14;101062.31;4937878;29;20106;-79
2022/06/30 09:02:56;;;;;;;9.00;4.10;;;;;;;24.07;57.60;101060.84;4941306;29;20114;-81
2022/06/30 09:05:22;;;;;;;8.63;4.63;;;;;;;24.18;59.73;101069.84;4941390;29;20121;-80
2022/06/30 09:07:47;;;;;;;11.68;4.50;;;;;;;24.22;58.96;101070.03;4941276;29;20043;-83
2022/06/30 09:10:13;;;;;;;10.48;4.75;;;;;;;24.28;59.34;101077.16;4942750;29;21459;-80
2022/06/30 09:12:38;;;;;;;10.68;4.70;;;;;;;24.63;58.77;101071.41;4919442;29;20039;-82
2022/06/30 09:15:05;;;;;;;9.25;4.20;;;;;;;24.38;57.23;101071.47;4942099;29;20036;-81
2022/06/30 09:17:30;;;;;;;7.22;3.90;;;;;;;24.55;54.86;101067.34;4937776;29;20035;-80
2022/06/30 09:20:00;;;;;;;8.02;4.13;;;;;;;24.52;55.63;101068.78;4940540;29;20043;-81
2022/06/30 09:22:30;;;;;;;9.07;4.40;;;;;;;24.71;55.36;101063.25;4944663;28;20488;-81
2022/06/30 09:24:56;;;;;;;7.55;3.85;;;;;;;24.93;59.12;101070.09;4940469;29;20035;-81
2022/06/30 09:27:23;;;;;;;10.73;4.80;;;;;;;25.05;55.69;101066.81;4936729;29;20081;-81
2022/06/30 09:29:59;;;;;;;9.65;4.88;;;;;;;24.94;56.37;101072.56;4938351;29;20483;-81
2022/06/30 09:32:25;;;;;;;6.47;4.07;;;;;;;25.20;54.23;101074.03;4940128;29;20127;-81
2022/06/30 09:34:52;;;;;;;10.88;4.15;;;;;;;24.91;54.52;101067.63;4940320;29;20039;-81
2022/06/30 09:37:22;;;;;;;9.25;4.35;;;;;;;24.98;54.53;101077.47;4926772;29;20023;-82
2022/06/30 09:39:51;;;;;;;8.75;4.13;;;;;;;25.16;55.09;101082.16;4938929;29;20098;-80
2022/06/30 09:42:41;;;;;;;7.80;4.28;;;;;;;25.32;54.92;101079.09;4943130;29;20127;-81
2022/06/30 09:45:10;;;;;;;7.00;4.05;;;;;;;24.98;54.20;101072.75;4941928;29;20082;-81
2022/06/30 09:47:36;;;;;;;10.07;4.20;;;;;;;25.18;53.06;101076.28;4927121;29;20115;-82
2022/06/30 09:50:07;;;;;;;7.90;3.83;;;;;;;25.33;53.16;101077.97;4938326;29;20405;-81
2022/06/30 09:52:33;;;;;;;10.30;4.13;;;;;;;25.06;53.70;101085.94;4943689;29;20069;-81
2022/06/30 09:54:59;;;;;;;11.40;4.50;;;;;;;25.58;55.42;101076.66;4922612;29;20121;-82
2022/06/30 09:57:30;;;;;;;10.07;4.55;;;;;;;25.29;53.93;101086.06;4936696;29;20038;-81
2022/06/30 10:00:02;;;;;;;9.90;4.13;;;;;;;25.21;54.37;101084.00;4936751;29;20456;-81
2022/06/30 10:02:39;;;;;;;7.95;4.13;;;;;;;25.27;55.25;101080.81;4940503;29;20121;-82
2022/06/30 10:05:06;;;;;;;8.68;3.88;;;;;;;25.83;53.24;101086.44;4932925;29;20384;-81
2022/06/30 10:07:35;;;;;;;7.63;3.95;;;;;;;25.75;54.88;101093.50;4925069;29;20050;-81
2022/06/30 10:10:09;;;;;;;9.93;3.65;;;;;;;25.97;53.79;101089.19;4934867;29;20031;-81
2022/06/30 10:12:35;;;;;;;6.55;3.38;;;;;;;26.10;53.99;101093.94;4913697;29;20118;-82
2022/06/30 10:15:01;;;;;;;7.78;3.22;;;;;;;26.31;53.68;101100.97;4934657;29;20058;-83
2022/06/30 10:17:36;;;;;;;8.63;3.88;;;;;;;26.04;52.65;101095.16;4934941;29;20126;-82
2022/06/30 10:20:03;;;;;;;6.57;3.50;;;;;;;25.91;52.98;101099.56;4926327;29;20035;-82
2022/06/30 10:22:30;;;;;;;9.32;4.00;;;;;;;25.86;52.54;101101.63;4934525;29;20494;-81
2022/06/30 10:24:57;;;;;;;7.65;4.13;;;;;;;25.58;50.86;101094.16;4937362;29;20732;-81
2022/06/30 10:27:24;;;;;;;10.10;4.30;;;;;;;25.28;50.81;101101.03;4928945;29;20038;-81
2022/06/30 10:29:54;;;;;;;8.52;3.90;;;;;;;25.86;54.27;101087.75;4938622;29;20040;-80
2022/06/30 10:32:46;;;;;;;9.98;3.67;;;;;;;26.50;52.59;101089.72;4939188;29;20040;-81
2022/06/30 10:35:21;;;;;;;7.43;3.60;;;;;;;26.22;53.09;101087.00;4937716;29;20050;-81
2022/06/30 10:38:10;;;;;;;9.40;3.63;;;;;;;26.63;52.48;101069.38;4935624;29;20038;-82
2022/06/30 10:40:52;;;;;;;9.73;4.03;;;;;;;26.42;49.95;101069.03;4922276;29;20386;-85
2022/06/30 10:43:18;;;;;;;7.93;3.97;;;;;;;26.39;51.26;101066.91;4934865;29;20053;-81
2022/06/30 10:46:05;;;;;;;7.50;3.70;;;;;;;26.66;50.35;101071.53;4936250;29;20040;-81
2022/06/30 10:48:53;;;;;;;11.80;3.80;;;;;;;26.32;50.28;101081.22;4939491;29;21048;-82
2022/06/30 10:51:20;;;;;;;8.35;3.65;;;;;;;25.49;48.63;101075.75;4925896;29;20055;-84
2022/06/30 10:53:45;;;;;;;8.48;3.83;;;;;;;25.47;49.74;101076.03;4931741;29;20039;-80
2022/06/30 10:56:10;;;;;;;7.80;3.50;;;;;;;25.50;49.86;101071.81;4941452;29;20058;-82
2022/06/30 10:58:36;;;;;;;6.85;3.72;;;;;;;25.65;53.89;101063.22;4934273;29;20047;-82
2022/06/30 11:01:04;;;;;;;8.63;3.78;;;;;;;25.41;51.49;101064.22;4934206;29;20126;-82
2022/06/30 11:03:29;;;;;;;6.80;3.03;;;;;;;25.70;50.34;101068.63;4915311;29;20078;-82
2022/06/30 11:06:05;;;;;;;7.90;3.40;;;;;;;25.79;50.70;101066.78;4933435;29;20641;-84
2022/06/30 11:08:37;;;;;;;8.75;3.78;;;;;;;25.92;51.76;101062.38;4930068;29;20102;-84
2022/06/30 11:11:20;;;;;;;6.50;3.45;;;;;;;26.35;51.65;101058.38;4930002;29;20118;-83
2022/06/30 11:14:01;;;;;;;7.47;3.33;;;;;;;26.52;51.90;101054.91;4929608;29;20405;-83
2022/06/30 11:16:28;;;;;;;5.05;3.40;;;;;;;26.45;49.45;101058.13;4929359;29;20051;-82
2022/06/30 11:18:54;;;;;;;8.50;3.30;;;;;;;26.38;48.25;101060.53;4929356;29;20772;-81
2022/06/30 11:21:20;;;;;;;8.23;3.13;;;;;;;26.06;48.78;101061.56;4930922;29;20043;-82
2022/06/30 11:23:48;;;;;;;6.97;3.72;;;;;;;25.45;52.54;101070.00;4932834;29;20127;-82
2022/06/30 11:29:01;;;;;;;7.97;3.65;;;;;;;25.57;53.48;101056.44;4933005;29;20075;-81